Time;durP1;ratioP1;P1;durP2;ratioP2;P2;SDS_P1;SDS_P2;PMS_P1;PMS_P2;Temp;Humidity;BMP_temperature;BMP_pressure;BME280_temperature;BME280_humidity;BME280_pressure;Samples;Min_cycle;Max_cycle;Signal;HPM_P1;HPM_P2
2021/12/01 00:00:19;;;;;;;;;12.00;12.00;;;;;;;;5217560;28;8800;-72
2021/12/01 00:02:53;;;;;;;;;12.80;12.60;;;;;;;;5175542;28;8955;-72
2021/12/01 00:05:26;;;;;;;;;18.60;18.00;;;;;;;;5249079;28;8779;-74
2021/12/01 00:07:58;;;;;;;;;11.60;10.20;;;;;;;;5232147;28;8779;-73
2021/12/01 00:10:30;;;;;;;;;7.40;7.40;;;;;;;;5232000;28;8817;-76
2021/12/01 00:13:02;;;;;;;;;9.00;9.00;;;;;;;;5266971;28;8800;-73
2021/12/01 00:15:34;;;;;;;;;8.80;8.80;;;;;;;;5267687;28;8825;-73
2021/12/01 00:18:05;;;;;;;;;11.40;11.40;;;;;;;;5285988;28;8778;-73
2021/12/01 00:20:36;;;;;;;;;5.80;5.80;;;;;;;;5252310;28;8774;-73
2021/12/01 00:23:08;;;;;;;;;2.00;2.00;;;;;;;;5253234;28;8783;-73
2021/12/01 00:25:41;;;;;;;;;6.00;6.00;;;;;;;;5252879;28;8814;-73
2021/12/01 00:28:12;;;;;;;;;9.40;9.40;;;;;;;;5236204;28;8908;-73
2021/12/01 00:30:44;;;;;;;;;9.40;9.40;;;;;;;;5252227;28;8814;-73
2021/12/01 00:33:22;;;;;;;;;11.20;11.20;;;;;;;;5252195;28;8767;-73
2021/12/01 00:35:55;;;;;;;;;5.40;5.40;;;;;;;;5219105;28;8824;-73
2021/12/01 00:38:28;;;;;;;;;15.80;15.80;;;;;;;;5252366;28;8778;-74
2021/12/01 00:41:02;;;;;;;;;8.00;8.00;;;;;;;;5235620;28;8826;-74
2021/12/01 00:43:38;;;;;;;;;5.80;5.80;;;;;;;;5235266;28;8797;-74
2021/12/01 00:46:14;;;;;;;;;6.80;6.80;;;;;;;;5235092;28;8824;-74
2021/12/01 00:48:46;;;;;;;;;5.20;5.20;;;;;;;;5235939;28;8802;-73
2021/12/01 00:51:18;;;;;;;;;6.80;6.80;;;;;;;;5252241;28;8851;-74
2021/12/01 00:53:49;;;;;;;;;6.20;5.60;;;;;;;;5251742;28;8771;-73
2021/12/01 00:56:20;;;;;;;;;3.60;3.60;;;;;;;;5251517;28;8864;-73
2021/12/01 00:58:52;;;;;;;;;6.20;6.20;;;;;;;;5251871;28;8805;-74
2021/12/01 01:01:23;;;;;;;;;5.80;5.80;;;;;;;;5251683;28;8778;-74
2021/12/01 01:03:54;;;;;;;;;2.00;2.00;;;;;;;;5234918;28;8814;-75
2021/12/01 01:06:25;;;;;;;;;7.20;7.20;;;;;;;;5269914;28;8767;-72
2021/12/01 01:08:55;;;;;;;;;8.00;8.00;;;;;;;;5234781;28;8782;-72
2021/12/01 01:17:08;;;;;;;;;9.80;9.80;;;;;;;;5251972;28;8801;-72
2021/12/01 01:19:40;;;;;;;;;10.40;10.40;;;;;;;;5269524;28;8786;-73
2021/12/01 01:22:11;;;;;;;;;8.20;8.20;;;;;;;;5218107;28;8785;-72
2021/12/01 01:24:42;;;;;;;;;9.60;9.60;;;;;;;;5251715;28;8781;-73
2021/12/01 01:27:33;;;;;;;;;8.60;8.40;;;;;;;;5250918;28;8771;-73
2021/12/01 01:30:04;;;;;;;;;9.80;9.80;;;;;;;;5250967;28;8843;-73
2021/12/01 01:32:35;;;;;;;;;6.20;6.20;;;;;;;;5217666;28;8771;-73
2021/12/01 01:35:07;;;;;;;;;4.40;4.40;;;;;;;;5268797;28;8759;-73
2021/12/01 01:37:38;;;;;;;;;1.00;1.00;;;;;;;;5217909;28;8767;-73
2021/12/01 01:40:09;;;;;;;;;10.60;10.60;;;;;;;;5250838;28;8767;-73
2021/12/01 01:42:40;;;;;;;;;6.40;6.40;;;;;;;;5251234;28;8786;-73
2021/12/01 01:45:12;;;;;;;;;5.20;5.20;;;;;;;;5267891;28;8897;-75
2021/12/01 01:47:59;;;;;;;;;9.20;9.20;;;;;;;;5234192;28;8813;-75
2021/12/01 01:50:48;;;;;;;;;6.20;6.20;;;;;;;;5250774;28;8767;-75
2021/12/01 01:53:22;;;;;;;;;6.40;5.40;;;;;;;;5234297;28;8810;-75
2021/12/01 01:55:57;;;;;;;;;6.00;6.00;;;;;;;;5234011;28;8814;-75
2021/12/01 01:58:28;;;;;;;;;11.60;10.00;;;;;;;;5251016;28;8848;-75
2021/12/01 02:01:06;;;;;;;;;11.40;11.40;;;;;;;;5251280;28;8826;-75
2021/12/01 02:03:56;;;;;;;;;4.80;4.80;;;;;;;;5250714;28;8803;-75
2021/12/01 02:06:47;;;;;;;;;4.00;4.00;;;;;;;;5236907;28;8792;-75
2021/12/01 02:09:20;;;;;;;;;5.20;5.20;;;;;;;;5217577;28;8799;-75
2021/12/01 02:11:52;;;;;;;;;5.60;5.60;;;;;;;;5268574;28;8790;-75
2021/12/01 02:14:24;;;;;;;;;1.60;1.60;;;;;;;;5233613;28;8912;-75
2021/12/01 02:16:56;;;;;;;;;5.40;5.40;;;;;;;;5249657;28;8802;-75
2021/12/01 02:19:27;;;;;;;;;2.00;2.00;;;;;;;;5233546;28;8778;-75
2021/12/01 02:21:58;;;;;;;;;5.60;5.60;;;;;;;;5233439;28;8775;-75
2021/12/01 02:24:30;;;;;;;;;4.40;4.40;;;;;;;;5249968;28;8814;-75
2021/12/01 02:27:01;;;;;;;;;5.00;5.00;;;;;;;;5232932;28;8774;-76
2021/12/01 02:29:51;;;;;;;;;4.80;4.80;;;;;;;;5252765;28;8775;-75
2021/12/01 02:32:22;;;;;;;;;6.40;6.40;;;;;;;;5250043;28;8912;-72
2021/12/01 02:34:53;;;;;;;;;5.00;5.00;;;;;;;;5249636;28;9482;-72
2021/12/01 02:37:24;;;;;;;;;15.60;14.20;;;;;;;;5249419;28;9537;-71
2021/12/01 02:39:55;;;;;;;;;5.25;5.25;;;;;;;;5249218;28;8783;-71
2021/12/01 02:42:26;;;;;;;;;4.50;4.50;;;;;;;;5233113;28;11375;-71
2021/12/01 02:44:58;;;;;;;;;3.00;2.40;;;;;;;;5267234;28;10990;-71
2021/12/01 02:47:29;;;;;;;;;8.40;8.40;;;;;;;;5249348;28;8770;-72
2021/12/01 02:50:00;;;;;;;;;8.00;8.00;;;;;;;;5233444;28;8791;-72
2021/12/01 02:52:50;;;;;;;;;21.80;21.00;;;;;;;;5252183;28;8794;-72
2021/12/01 02:55:22;;;;;;;;;28.80;27.40;;;;;;;;5250012;28;8805;-71
2021/12/01 02:58:11;;;;;;;;;33.00;33.00;;;;;;;;5235936;28;8779;-72
2021/12/01 03:00:42;;;;;;;;;71.00;55.75;;;;;;;;5249338;28;8767;-72
2021/12/01 03:03:13;;;;;;;;;28.50;28.00;;;;;;;;5215843;28;8810;-73
2021/12/01 03:05:48;;;;;;;;;24.00;24.00;;;;;;;;5249183;28;11454;-74
2021/12/01 03:08:20;;;;;;;;;22.60;22.60;;;;;;;;5216256;28;8881;-73
2021/12/01 03:10:52;;;;;;;;;15.00;15.00;;;;;;;;5249484;28;8794;-73
2021/12/01 03:13:24;;;;;;;;;11.80;11.40;;;;;;;;5232492;28;8801;-72
2021/12/01 03:15:56;;;;;;;;;4.20;4.20;;;;;;;;5283202;28;9578;-73
2021/12/01 03:18:27;;;;;;;;;8.60;8.60;;;;;;;;5266616;28;8783;-72
2021/12/01 03:20:59;;;;;;;;;6.00;6.00;;;;;;;;5232520;28;8843;-72
2021/12/01 03:23:29;;;;;;;;;5.00;5.00;;;;;;;;5249248;28;8802;-72
2021/12/01 03:26:01;;;;;;;;;6.60;6.20;;;;;;;;5232433;28;9501;-72
2021/12/01 03:28:50;;;;;;;;;3.00;2.00;;;;;;;;5249825;28;8925;-73
2021/12/01 03:31:24;;;;;;;;;5.00;5.00;;;;;;;;5232405;28;8775;-71
2021/12/01 03:33:55;;;;;;;;;7.25;7.00;;;;;;;;5249062;28;8785;-72
2021/12/01 03:36:27;;;;;;;;;9.00;9.00;;;;;;;;5247884;28;11424;-70
2021/12/01 03:38:58;;;;;;;;;9.00;9.00;;;;;;;;5248506;28;8798;-71
2021/12/01 03:41:29;;;;;;;;;7.00;7.00;;;;;;;;5232974;28;8790;-70
2021/12/01 03:44:01;;;;;;;;;14.00;14.00;;;;;;;;5282691;28;8798;-71
2021/12/01 03:46:35;;;;;;;;;14.40;13.80;;;;;;;;5233363;28;8848;-70
2021/12/01 03:49:07;;;;;;;;;10.60;10.60;;;;;;;;5248916;28;8926;-70
2021/12/01 03:51:38;;;;;;;;;13.00;13.00;;;;;;;;5269538;28;8779;-73
2021/12/01 03:54:09;;;;;;;;;21.50;21.50;;;;;;;;5236302;28;8817;-73
2021/12/01 03:56:40;;;;;;;;;14.80;14.00;;;;;;;;5252608;28;8969;-72
2021/12/01 03:59:13;;;;;;;;;17.00;15.50;;;;;;;;5252725;28;8851;-72
2021/12/01 04:01:44;;;;;;;;;15.60;15.20;;;;;;;;5252501;28;10544;-71
2021/12/01 04:04:15;;;;;;;;;12.20;12.20;;;;;;;;5219530;28;9557;-72
2021/12/01 04:06:46;;;;;;;;;11.20;9.40;;;;;;;;5235928;28;8787;-73
2021/12/01 04:09:18;;;;;;;;;9.00;9.00;;;;;;;;5235731;28;8846;-73
2021/12/01 04:11:50;;;;;;;;;19.40;19.40;;;;;;;;5236009;28;9506;-74
2021/12/01 04:14:22;;;;;;;;;13.20;13.20;;;;;;;;5235743;28;8781;-76
2021/12/01 04:16:53;;;;;;;;;12.60;12.60;;;;;;;;5235617;28;8794;-73
2021/12/01 04:19:42;;;;;;;;;9.40;9.40;;;;;;;;5270775;28;8860;-74
2021/12/01 04:22:13;;;;;;;;;9.40;9.40;;;;;;;;5252695;28;8778;-75
2021/12/01 04:24:44;;;;;;;;;4.00;4.00;;;;;;;;5252546;28;8809;-74
2021/12/01 04:27:15;;;;;;;;;10.20;10.20;;;;;;;;5252316;28;9933;-74
2021/12/01 04:29:46;;;;;;;;;8.00;8.00;;;;;;;;5235353;28;9515;-73
2021/12/01 04:32:17;;;;;;;;;6.00;6.00;;;;;;;;5235434;28;8782;-72
2021/12/01 04:34:47;;;;;;;;;4.25;4.25;;;;;;;;5235696;28;8763;-73
2021/12/01 04:37:18;;;;;;;;;8.50;8.50;;;;;;;;5252205;28;8841;-73
2021/12/01 04:39:49;;;;;;;;;9.75;9.75;;;;;;;;5235353;28;8867;-71
2021/12/01 04:42:21;;;;;;;;;13.20;12.60;;;;;;;;5235704;28;8887;-72
2021/12/01 04:44:52;;;;;;;;;3.80;3.80;;;;;;;;5219018;28;8779;-73
2021/12/01 04:47:28;;;;;;;;;10.40;10.40;;;;;;;;5252208;28;9617;-74
2021/12/01 04:50:00;;;;;;;;;13.00;13.00;;;;;;;;5235590;28;8759;-74
2021/12/01 04:52:51;;;;;;;;;13.80;12.80;;;;;;;;5238284;28;8871;-75
2021/12/01 04:55:22;;;;;;;;;4.60;4.60;;;;;;;;5218663;28;8798;-74
2021/12/01 04:57:54;;;;;;;;;9.40;8.60;;;;;;;;5268273;28;8791;-73
2021/12/01 05:00:26;;;;;;;;;5.40;5.40;;;;;;;;5235120;28;8795;-75
2021/12/01 05:07:35;;;;;;;;;7.40;7.40;;;;;;;;5143111;28;8782;-72
2021/12/01 05:10:07;;;;;;;;;6.00;6.00;;;;;;;;5210378;28;8811;-72
2021/12/01 05:12:38;;;;;;;;;6.80;6.00;;;;;;;;5193555;28;11091;-73
2021/12/01 05:15:10;;;;;;;;;1.00;1.00;;;;;;;;5192798;28;8917;-73
2021/12/01 05:17:59;;;;;;;;;8.80;8.80;;;;;;;;5143159;28;8791;-72
2021/12/01 05:20:30;;;;;;;;;5.60;5.60;;;;;;;;5193500;28;8819;-72
2021/12/01 05:23:01;;;;;;;;;5.00;5.00;;;;;;;;5193190;28;8790;-72
2021/12/01 05:29:56;;;;;;;;;6.80;6.80;;;;;;;;5122844;28;9405;-73
2021/12/01 05:32:27;;;;;;;;;9.00;9.00;;;;;;;;5205984;28;8867;-73
2021/12/01 05:34:58;;;;;;;;;8.50;8.50;;;;;;;;5205716;28;8782;-73
2021/12/01 05:37:29;;;;;;;;;8.80;8.80;;;;;;;;5122540;28;11510;-73
2021/12/01 05:40:00;;;;;;;;;9.20;9.20;;;;;;;;5189829;28;8924;-74
2021/12/01 05:42:31;;;;;;;;;12.00;12.00;;;;;;;;5173166;28;8964;-73
2021/12/01 05:45:02;;;;;;;;;11.60;10.20;;;;;;;;5189327;28;8826;-74
2021/12/01 05:47:34;;;;;;;;;12.80;11.40;;;;;;;;5222032;28;8781;-73
2021/12/01 05:50:05;;;;;;;;;14.40;14.40;;;;;;;;5189347;28;9612;-73
2021/12/01 05:52:36;;;;;;;;;9.80;9.80;;;;;;;;5221993;28;8801;-73
2021/12/01 05:55:08;;;;;;;;;6.00;4.00;;;;;;;;5123123;28;8812;-73
2021/12/01 05:57:39;;;;;;;;;11.80;11.00;;;;;;;;5188948;28;9488;-73
2021/12/01 06:00:12;;;;;;;;;7.50;7.50;;;;;;;;5188883;28;8797;-73
2021/12/01 06:02:44;;;;;;;;;5.00;5.00;;;;;;;;5188133;28;8785;-72
2021/12/01 06:05:15;;;;;;;;;5.00;5.00;;;;;;;;5184439;28;8789;-72
2021/12/01 06:07:47;;;;;;;;;4.20;4.20;;;;;;;;5263415;28;9468;-72
2021/12/01 06:10:18;;;;;;;;;2.20;2.20;;;;;;;;5229550;28;8812;-73
2021/12/01 06:12:49;;;;;;;;;5.40;5.40;;;;;;;;5196308;28;8808;-72
2021/12/01 06:15:20;;;;;;;;;2.00;2.00;;;;;;;;5229925;28;8801;-72
2021/12/01 06:17:52;;;;;;;;;1.00;1.00;;;;;;;;5229988;28;8776;-72
2021/12/01 06:20:23;;;;;;;;;1.00;1.00;;;;;;;;5213076;28;8780;-73
2021/12/01 06:22:54;;;;;;;;;5.40;5.40;;;;;;;;5212989;28;8820;-72
2021/12/01 06:25:25;;;;;;;;;4.40;4.40;;;;;;;;5229757;28;8784;-72
2021/12/01 06:27:57;;;;;;;;;3.80;3.80;;;;;;;;5245737;28;8895;-72
2021/12/01 06:30:31;;;;;;;;;2.00;2.00;;;;;;;;5212642;28;8895;-72
2021/12/01 06:33:03;;;;;;;;;0.00;0.00;;;;;;;;5228964;28;11373;-73
2021/12/01 06:35:34;;;;;;;;;1.80;1.80;;;;;;;;5212483;28;8927;-73
2021/12/01 06:38:05;;;;;;;;;4.00;4.00;;;;;;;;5229397;28;8785;-73
2021/12/01 06:40:36;;;;;;;;;2.40;2.40;;;;;;;;5229025;28;8824;-73
2021/12/01 06:43:07;;;;;;;;;2.00;2.00;;;;;;;;5228826;28;8858;-73
2021/12/01 06:45:38;;;;;;;;;4.00;4.00;;;;;;;;5246680;28;9005;-73
2021/12/01 06:48:09;;;;;;;;;2.00;2.00;;;;;;;;5229147;28;10691;-73
2021/12/01 06:50:40;;;;;;;;;5.00;5.00;;;;;;;;5228777;28;8809;-73
2021/12/01 06:53:11;;;;;;;;;5.20;5.00;;;;;;;;5228813;28;8797;-72
2021/12/01 06:55:42;;;;;;;;;9.00;9.00;;;;;;;;5228894;28;8812;-73
2021/12/01 06:58:13;;;;;;;;;5.00;4.80;;;;;;;;5228938;28;11357;-72
2021/12/01 07:00:45;;;;;;;;;6.40;6.40;;;;;;;;5262053;28;8777;-72
2021/12/01 07:03:17;;;;;;;;;5.20;5.20;;;;;;;;5228738;28;8789;-72
2021/12/01 07:05:48;;;;;;;;;8.00;8.00;;;;;;;;5246546;28;8823;-72
2021/12/01 07:08:19;;;;;;;;;2.00;2.00;;;;;;;;5228499;28;8931;-72
2021/12/01 07:10:50;;;;;;;;;4.80;4.80;;;;;;;;5246635;28;8799;-72
2021/12/01 07:13:21;;;;;;;;;4.00;4.00;;;;;;;;5228432;28;8803;-73
2021/12/01 07:16:10;;;;;;;;;8.00;8.00;;;;;;;;5246267;28;8825;-73
2021/12/01 07:18:42;;;;;;;;;4.20;4.20;;;;;;;;5195733;28;8803;-73
2021/12/01 07:21:13;;;;;;;;;6.20;6.20;;;;;;;;5228452;28;9486;-73
2021/12/01 07:23:44;;;;;;;;;10.50;10.50;;;;;;;;5228314;28;8769;-73
2021/12/01 07:26:15;;;;;;;;;8.25;8.00;;;;;;;;5213866;28;8850;-73
2021/12/01 07:28:45;;;;;;;;;8.00;8.00;;;;;;;;5232785;28;9515;-73
2021/12/01 07:31:17;;;;;;;;;6.75;6.75;;;;;;;;5216481;28;11379;-73
2021/12/01 07:33:48;;;;;;;;;2.00;2.00;;;;;;;;5249250;28;8764;-72
2021/12/01 07:36:19;;;;;;;;;4.50;3.50;;;;;;;;5216040;28;8791;-73
2021/12/01 07:38:50;;;;;;;;;2.00;2.00;;;;;;;;5232319;28;8765;-73
2021/12/01 07:41:21;;;;;;;;;1.20;1.20;;;;;;;;5232570;28;8811;-73
2021/12/01 07:43:52;;;;;;;;;5.00;5.00;;;;;;;;5216227;28;8776;-73
2021/12/01 07:46:23;;;;;;;;;7.00;7.00;;;;;;;;5232444;28;8773;-73
2021/12/01 07:48:54;;;;;;;;;1.00;1.00;;;;;;;;5249174;28;8776;-73
2021/12/01 07:51:25;;;;;;;;;5.40;4.20;;;;;;;;5232259;28;8935;-73
2021/12/01 07:53:55;;;;;;;;;7.50;7.50;;;;;;;;5232389;28;8907;-74
2021/12/01 07:56:26;;;;;;;;;11.00;11.00;;;;;;;;5231986;28;10916;-71
2021/12/01 07:58:57;;;;;;;;;5.75;5.00;;;;;;;;5232411;28;10885;-73
2021/12/01 08:01:28;;;;;;;;;1.00;1.00;;;;;;;;5232413;28;8777;-73
2021/12/01 08:03:59;;;;;;;;;5.40;5.20;;;;;;;;5232192;28;8773;-71
2021/12/01 08:06:32;;;;;;;;;3.50;3.50;;;;;;;;5231926;28;8843;-73
2021/12/01 08:09:23;;;;;;;;;3.00;3.00;;;;;;;;5234658;28;11534;-70
2021/12/01 08:11:54;;;;;;;;;14.60;14.60;;;;;;;;5248647;28;8934;-73
2021/12/01 08:14:25;;;;;;;;;5.80;5.40;;;;;;;;5198773;28;8850;-73
2021/12/01 08:16:56;;;;;;;;;5.00;4.25;;;;;;;;5249336;28;8804;-72
2021/12/01 08:19:27;;;;;;;;;3.00;3.00;;;;;;;;5231791;28;11363;-73
2021/12/01 08:21:58;;;;;;;;;2.00;2.00;;;;;;;;5249497;28;9131;-73
2021/12/01 08:24:32;;;;;;;;;2.00;2.00;;;;;;;;5249794;28;11527;-73
2021/12/01 08:27:03;;;;;;;;;3.40;3.40;;;;;;;;5214808;28;11406;-73
2021/12/01 08:29:34;;;;;;;;;6.00;6.00;;;;;;;;5249338;28;8788;-73
2021/12/01 08:32:05;;;;;;;;;4.60;4.60;;;;;;;;5231358;28;8809;-73
2021/12/01 08:34:36;;;;;;;;;4.20;4.20;;;;;;;;5248712;28;8804;-73
2021/12/01 08:37:08;;;;;;;;;5.00;5.00;;;;;;;;5213188;28;8861;-71
2021/12/01 08:39:39;;;;;;;;;5.40;5.40;;;;;;;;5248049;28;11434;-72
2021/12/01 08:42:19;;;;;;;;;4.20;4.20;;;;;;;;5231202;28;8799;-72
2021/12/01 08:44:50;;;;;;;;;5.00;5.00;;;;;;;;5231827;28;9527;-72
2021/12/01 08:47:23;;;;;;;;;6.00;6.00;;;;;;;;5231415;28;8805;-72
2021/12/01 08:49:54;;;;;;;;;4.60;4.60;;;;;;;;5198351;28;8861;-72
2021/12/01 08:52:25;;;;;;;;;5.40;5.40;;;;;;;;5231291;28;9531;-72
2021/12/01 08:54:56;;;;;;;;;3.50;3.50;;;;;;;;5231059;28;8788;-72
2021/12/01 08:57:27;;;;;;;;;5.50;5.50;;;;;;;;5230683;28;11606;-72
2021/12/01 08:59:58;;;;;;;;;5.00;5.00;;;;;;;;5230904;28;9188;-73
2021/12/01 09:02:29;;;;;;;;;9.60;9.60;;;;;;;;5214436;28;8792;-72
2021/12/01 09:05:00;;;;;;;;;4.60;4.60;;;;;;;;5214741;28;8801;-72
2021/12/01 09:07:31;;;;;;;;;1.60;1.60;;;;;;;;5248637;28;8835;-73
2021/12/01 09:10:03;;;;;;;;;4.00;4.00;;;;;;;;5230454;28;8781;-73
2021/12/01 09:12:34;;;;;;;;;5.00;5.00;;;;;;;;5214362;28;8768;-74
2021/12/01 09:15:05;;;;;;;;;9.50;9.50;;;;;;;;5214331;28;8777;-74
2021/12/01 09:17:36;;;;;;;;;4.60;4.20;;;;;;;;5231009;28;8809;-71
2021/12/01 09:20:08;;;;;;;;;5.60;5.60;;;;;;;;5230512;28;8888;-71
2021/12/01 09:22:39;;;;;;;;;7.20;7.00;;;;;;;;5213899;28;8777;-71
2021/12/01 09:25:29;;;;;;;;;5.00;5.00;;;;;;;;5248165;28;8994;-71
2021/12/01 09:28:00;;;;;;;;;9.00;8.20;;;;;;;;5197228;28;8784;-71
2021/12/01 09:30:31;;;;;;;;;6.00;6.00;;;;;;;;5248008;28;9593;-71
2021/12/01 09:33:02;;;;;;;;;5.60;5.60;;;;;;;;5248268;28;8957;-71
2021/12/01 09:35:33;;;;;;;;;5.80;5.80;;;;;;;;5247769;28;8808;-71
2021/12/01 09:38:04;;;;;;;;;4.75;4.75;;;;;;;;5264895;28;8823;-71
2021/12/01 09:40:35;;;;;;;;;3.40;3.00;;;;;;;;5213981;28;8849;-70
2021/12/01 09:43:06;;;;;;;;;52.80;44.80;;;;;;;;5247779;28;8785;-70
2021/12/01 09:45:37;;;;;;;;;11.75;11.75;;;;;;;;5213068;28;8792;-71
2021/12/01 09:48:09;;;;;;;;;7.00;7.00;;;;;;;;5230321;28;8980;-72
2021/12/01 09:50:40;;;;;;;;;15.40;15.40;;;;;;;;5229832;28;8784;-72
2021/12/01 09:53:11;;;;;;;;;3.20;2.40;;;;;;;;5213398;28;8842;-72
2021/12/01 09:55:43;;;;;;;;;5.00;5.00;;;;;;;;5213078;28;8859;-71
2021/12/01 09:58:16;;;;;;;;;5.80;5.80;;;;;;;;5213313;28;9467;-72
2021/12/01 10:00:49;;;;;;;;;7.00;7.00;;;;;;;;5247394;28;8768;-73
2021/12/01 10:03:20;;;;;;;;;6.00;5.60;;;;;;;;5222836;28;8753;-73
2021/12/01 10:06:13;;;;;;;;;4.00;4.00;;;;;;;;5268542;28;8811;-73
2021/12/01 10:08:46;;;;;;;;;8.80;8.80;;;;;;;;5268430;28;9379;-72
2021/12/01 10:11:22;;;;;;;;;9.60;9.60;;;;;;;;5217487;28;8788;-72
2021/12/01 10:13:54;;;;;;;;;5.80;5.80;;;;;;;;5233912;28;8895;-73
2021/12/01 10:16:28;;;;;;;;;6.60;6.60;;;;;;;;5250101;28;8822;-71
2021/12/01 10:19:17;;;;;;;;;7.20;6.00;;;;;;;;5268575;28;8776;-72
2021/12/01 10:21:49;;;;;;;;;24.00;23.20;;;;;;;;5250124;28;8772;-72
2021/12/01 10:24:24;;;;;;;;;24.20;24.20;;;;;;;;5217277;28;8784;-72
2021/12/01 10:26:57;;;;;;;;;14.60;14.00;;;;;;;;5216912;28;9608;-72
2021/12/01 10:29:30;;;;;;;;;13.60;13.60;;;;;;;;5249208;28;8806;-73
2021/12/01 10:32:20;;;;;;;;;14.40;14.40;;;;;;;;5235605;28;9566;-73
2021/12/01 10:34:56;;;;;;;;;6.60;6.60;;;;;;;;5249738;28;8790;-73
2021/12/01 10:37:28;;;;;;;;;7.20;7.20;;;;;;;;5232916;28;8821;-74
2021/12/01 10:40:23;;;;;;;;;6.20;6.20;;;;;;;;5235849;28;9462;-72
2021/12/01 10:42:58;;;;;;;;;6.00;6.00;;;;;;;;5233029;28;8774;-72
2021/12/01 10:45:31;;;;;;;;;12.80;11.80;;;;;;;;5232307;28;8809;-74
2021/12/01 10:48:24;;;;;;;;;17.80;17.40;;;;;;;;5253103;28;8788;-73
2021/12/01 10:51:31;;;;;;;;;5.60;5.60;;;;;;;;5252511;28;8796;-72
2021/12/01 10:54:02;;;;;;;;;6.00;6.00;;;;;;;;5216318;28;8869;-72
2021/12/01 10:56:36;;;;;;;;;4.60;4.60;;;;;;;;5216674;28;9580;-73
2021/12/01 10:59:14;;;;;;;;;7.00;7.00;;;;;;;;5212368;28;8837;-74
2021/12/01 11:01:45;;;;;;;;;10.60;10.60;;;;;;;;5263280;28;8840;-73
2021/12/01 11:04:36;;;;;;;;;11.20;11.20;;;;;;;;5266381;28;8779;-75
2021/12/01 11:07:22;;;;;;;;;31.00;30.60;;;;;;;;5267160;28;8802;-73
2021/12/01 11:10:12;;;;;;;;;29.20;28.00;;;;;;;;5267121;28;8805;-74
2021/12/01 11:12:45;;;;;;;;;17.20;17.20;;;;;;;;5228647;28;8769;-73
2021/12/01 11:19:40;;;;;;;;;11.60;11.00;;;;;;;;5246129;28;9408;-70
2021/12/01 11:22:36;;;;;;;;;9.00;9.00;;;;;;;;5213978;28;8850;-71
2021/12/01 11:25:21;;;;;;;;;5.40;5.40;;;;;;;;5228968;28;8850;-72
2021/12/01 11:27:51;;;;;;;;;5.60;5.60;;;;;;;;5195350;28;8897;-72
2021/12/01 11:30:23;;;;;;;;;16.80;16.80;;;;;;;;5228865;28;8777;-71
2021/12/01 11:33:14;;;;;;;;;14.60;14.00;;;;;;;;5231233;28;8796;-71
2021/12/01 11:35:45;;;;;;;;;11.00;11.00;;;;;;;;5211465;28;8804;-71
2021/12/01 11:38:17;;;;;;;;;10.00;9.40;;;;;;;;5195548;28;9492;-71
2021/12/01 11:40:51;;;;;;;;;7.60;7.60;;;;;;;;5245601;28;8773;-73
2021/12/01 11:43:40;;;;;;;;;17.60;17.60;;;;;;;;5229351;28;9535;-73
2021/12/01 11:46:11;;;;;;;;;14.00;14.00;;;;;;;;5245796;28;8931;-73
2021/12/01 11:48:47;;;;;;;;;2.00;2.00;;;;;;;;5211547;28;8828;-72
2021/12/01 11:51:23;;;;;;;;;9.80;9.80;;;;;;;;5228823;28;8772;-72
2021/12/01 11:53:55;;;;;;;;;13.00;13.00;;;;;;;;5212298;28;8765;-72
2021/12/01 11:56:32;;;;;;;;;6.60;6.60;;;;;;;;5227958;28;8804;-74
2021/12/01 11:59:05;;;;;;;;;6.00;6.00;;;;;;;;5228496;28;8772;-72
2021/12/01 12:01:37;;;;;;;;;6.00;6.00;;;;;;;;5212346;28;8777;-72
2021/12/01 12:04:09;;;;;;;;;3.40;3.40;;;;;;;;5227855;28;8775;-72
2021/12/01 12:06:59;;;;;;;;;3.80;3.80;;;;;;;;5190658;28;8830;-72
2021/12/01 12:09:30;;;;;;;;;0.40;0.40;;;;;;;;5207717;28;8803;-73
2021/12/01 12:12:02;;;;;;;;;0.20;0.20;;;;;;;;5208767;28;8782;-71
2021/12/01 12:14:35;;;;;;;;;8.20;8.20;;;;;;;;5178542;28;8787;-72
2021/12/01 12:17:06;;;;;;;;;5.60;5.60;;;;;;;;5194647;28;8833;-72
2021/12/01 12:19:43;;;;;;;;;5.75;5.75;;;;;;;;5211689;28;9494;-73
2021/12/01 12:22:35;;;;;;;;;8.00;8.00;;;;;;;;5178141;28;8805;-73
2021/12/01 12:25:08;;;;;;;;;9.00;9.00;;;;;;;;5144081;28;8925;-73
2021/12/01 12:27:44;;;;;;;;;13.80;12.40;;;;;;;;5210748;28;8999;-73
2021/12/01 12:30:39;;;;;;;;;10.00;10.00;;;;;;;;5196992;28;8794;-73
2021/12/01 12:33:38;;;;;;;;;16.40;16.40;;;;;;;;5197191;28;8894;-72
2021/12/01 12:36:09;;;;;;;;;52.60;44.20;;;;;;;;5211104;28;8960;-72
2021/12/01 12:39:00;;;;;;;;;59.20;49.40;;;;;;;;5178196;28;8806;-72
2021/12/01 12:41:31;;;;;;;;;48.00;42.60;;;;;;;;5210876;28;9572;-72
2021/12/01 12:44:21;;;;;;;;;31.75;30.75;;;;;;;;5194299;28;8834;-72
2021/12/01 12:47:02;;;;;;;;;27.20;25.60;;;;;;;;5210749;28;11543;-72
2021/12/01 12:49:37;;;;;;;;;24.00;22.20;;;;;;;;5177791;28;8790;-74
2021/12/01 12:52:26;;;;;;;;;18.40;16.20;;;;;;;;5193817;28;8805;-71
2021/12/01 12:54:59;;;;;;;;;22.60;22.00;;;;;;;;5194109;28;8867;-71
2021/12/01 12:57:46;;;;;;;;;21.60;21.60;;;;;;;;5193902;28;9536;-71
2021/12/01 13:00:17;;;;;;;;;17.60;16.20;;;;;;;;5211030;28;8774;-71
2021/12/01 13:02:48;;;;;;;;;13.20;13.20;;;;;;;;5193624;28;8799;-71
2021/12/01 13:05:46;;;;;;;;;23.60;18.00;;;;;;;;5205387;28;8810;-71
2021/12/01 13:08:27;;;;;;;;;21.20;19.40;;;;;;;;5246335;28;8793;-71
2021/12/01 13:11:10;;;;;;;;;20.80;19.00;;;;;;;;5230894;28;8821;-72
2021/12/01 13:13:42;;;;;;;;;18.60;17.40;;;;;;;;5214135;28;8911;-72
2021/12/01 13:16:15;;;;;;;;;33.80;31.40;;;;;;;;5213996;28;8808;-73
2021/12/01 13:18:48;;;;;;;;;29.00;28.40;;;;;;;;5214675;28;8915;-73
2021/12/01 13:21:23;;;;;;;;;32.00;31.20;;;;;;;;5230865;28;8881;-73
2021/12/01 13:23:56;;;;;;;;;24.60;24.40;;;;;;;;5214341;28;8789;-72
2021/12/01 13:26:31;;;;;;;;;20.00;19.40;;;;;;;;5229287;28;8819;-72
2021/12/01 13:29:06;;;;;;;;;16.80;16.80;;;;;;;;5215376;28;9482;-72
2021/12/01 13:31:41;;;;;;;;;21.20;21.20;;;;;;;;5216621;28;8765;-72
2021/12/01 13:34:23;;;;;;;;;33.40;32.00;;;;;;;;5233351;28;9173;-72
2021/12/01 13:37:04;;;;;;;;;27.20;26.80;;;;;;;;5216368;28;8784;-72
2021/12/01 13:39:36;;;;;;;;;16.60;15.20;;;;;;;;5231957;28;8808;-71
2021/12/01 13:42:10;;;;;;;;;14.00;13.60;;;;;;;;5250023;28;9482;-71
2021/12/01 13:44:42;;;;;;;;;17.60;17.60;;;;;;;;5231495;28;9460;-71
2021/12/01 13:47:23;;;;;;;;;24.80;24.80;;;;;;;;5214665;28;8784;-71
2021/12/01 13:49:54;;;;;;;;;25.60;24.40;;;;;;;;5214197;28;8826;-71
2021/12/01 13:52:45;;;;;;;;;25.75;21.25;;;;;;;;5248381;28;8757;-71
2021/12/01 13:55:16;;;;;;;;;16.60;16.60;;;;;;;;5230131;28;9423;-70
2021/12/01 13:58:18;;;;;;;;;18.40;17.20;;;;;;;;5215719;28;8753;-70
2021/12/01 14:00:51;;;;;;;;;18.60;18.40;;;;;;;;5230599;28;8781;-71
2021/12/01 14:03:23;;;;;;;;;15.20;15.20;;;;;;;;5212601;28;8819;-72
2021/12/01 14:05:54;;;;;;;;;13.40;13.40;;;;;;;;5212546;28;8801;-72
2021/12/01 14:08:28;;;;;;;;;21.60;20.20;;;;;;;;5212630;28;8854;-70
2021/12/01 14:11:22;;;;;;;;;18.40;17.60;;;;;;;;5212750;28;8789;-71
2021/12/01 14:13:56;;;;;;;;;10.40;10.00;;;;;;;;5213869;28;8799;-71
2021/12/01 14:16:28;;;;;;;;;13.00;13.00;;;;;;;;5212661;28;8847;-71
2021/12/01 14:18:59;;;;;;;;;18.80;17.40;;;;;;;;5229364;28;9517;-72
2021/12/01 14:21:33;;;;;;;;;25.40;24.20;;;;;;;;5212578;28;8899;-71
2021/12/01 14:24:18;;;;;;;;;15.60;15.60;;;;;;;;5212134;28;8777;-71
2021/12/01 14:27:03;;;;;;;;;18.20;18.20;;;;;;;;5247749;28;8788;-70
2021/12/01 14:29:36;;;;;;;;;18.80;18.80;;;;;;;;5213420;28;8903;-72
2021/12/01 14:32:09;;;;;;;;;10.00;10.00;;;;;;;;5228964;28;8935;-71
2021/12/01 14:34:40;;;;;;;;;23.40;22.40;;;;;;;;5246810;28;8773;-72
2021/12/01 14:37:13;;;;;;;;;22.60;21.60;;;;;;;;5228891;28;8808;-71
2021/12/01 14:39:44;;;;;;;;;24.20;23.60;;;;;;;;5212431;28;9011;-71
2021/12/01 14:42:15;;;;;;;;;26.20;25.20;;;;;;;;5195382;28;8870;-72
2021/12/01 14:44:46;;;;;;;;;18.00;17.75;;;;;;;;5228672;28;8777;-71
2021/12/01 14:47:21;;;;;;;;;15.75;14.25;;;;;;;;5245441;28;8804;-75
2021/12/01 14:49:52;;;;;;;;;16.80;15.00;;;;;;;;5211933;28;8823;-72
2021/12/01 14:56:57;;;;;;;;;17.80;17.80;;;;;;;;5246344;28;8757;-71
2021/12/01 14:59:29;;;;;;;;;19.80;18.60;;;;;;;;5212565;28;8773;-71
2021/12/01 15:02:14;;;;;;;;;18.00;18.00;;;;;;;;5227692;28;8895;-71
2021/12/01 15:05:04;;;;;;;;;15.20;14.40;;;;;;;;5228206;28;8947;-72
2021/12/01 15:11:58;;;;;;;;;29.20;27.80;;;;;;;;5246320;28;8737;-72
2021/12/01 15:14:31;;;;;;;;;27.00;25.25;;;;;;;;5212760;28;8792;-72
2021/12/01 15:17:02;;;;;;;;;23.40;23.40;;;;;;;;5211367;28;11427;-73
2021/12/01 15:19:32;;;;;;;;;24.25;21.75;;;;;;;;5228728;28;8793;-73
2021/12/01 15:22:03;;;;;;;;;16.00;16.00;;;;;;;;5246855;28;8856;-73
2021/12/01 15:24:35;;;;;;;;;19.80;19.80;;;;;;;;5227787;28;8765;-74
2021/12/01 15:27:06;;;;;;;;;24.40;22.40;;;;;;;;5246355;28;8784;-71
2021/12/01 15:29:55;;;;;;;;;14.00;13.40;;;;;;;;5227691;28;8807;-73
2021/12/01 15:32:26;;;;;;;;;18.00;17.20;;;;;;;;5211844;28;8793;-74
2021/12/01 15:34:57;;;;;;;;;18.75;17.75;;;;;;;;5211796;28;9463;-72
2021/12/01 15:37:27;;;;;;;;;27.25;27.25;;;;;;;;5211489;28;8801;-73
2021/12/01 15:39:58;;;;;;;;;26.00;25.50;;;;;;;;5228838;28;8812;-75
2021/12/01 15:42:30;;;;;;;;;23.25;21.25;;;;;;;;5211239;28;8781;-72
2021/12/01 15:45:01;;;;;;;;;26.00;25.40;;;;;;;;5228015;28;11462;-72
2021/12/01 15:47:31;;;;;;;;;29.75;28.75;;;;;;;;5231236;28;8773;-73
2021/12/01 15:50:04;;;;;;;;;34.00;33.25;;;;;;;;5215061;28;8797;-72
2021/12/01 15:52:35;;;;;;;;;39.40;37.60;;;;;;;;5232603;28;8799;-72
2021/12/01 15:55:07;;;;;;;;;40.50;36.75;;;;;;;;5215740;28;8773;-72